createdAt,value
2018-09-28T00:00:03.171Z,0
2018-09-28T00:01:12.995Z,0
2018-09-28T00:02:23.072Z,0
2018-09-28T00:03:32.937Z,0
2018-09-28T00:04:43.011Z,0
2018-09-28T00:05:53.130Z,0
2018-09-28T00:07:03.196Z,0
2018-09-28T00:08:13.024Z,0
2018-09-28T00:09:23.134Z,0
2018-09-28T00:10:32.973Z,0
2018-09-28T00:11:43.082Z,0
2018-09-28T00:12:53.152Z,0
2018-09-28T00:14:05.773Z,0
2018-09-28T00:15:15.889Z,0
2018-09-28T00:16:25.958Z,0
2018-09-28T00:17:36.091Z,0
2018-09-28T00:18:45.921Z,0
2018-09-28T00:19:56.015Z,0
2018-09-28T00:21:06.246Z,0
2018-09-28T00:22:16.316Z,0
2018-09-28T00:23:26.388Z,0
2018-09-28T00:24:36.463Z,0
2018-09-28T00:25:46.564Z,0
2018-09-28T00:26:56.700Z,0
2018-09-28T00:28:06.775Z,0
2018-09-28T00:29:16.871Z,0
2018-09-28T00:30:26.935Z,0
2018-09-28T00:31:37.009Z,0
2018-09-28T00:32:47.132Z,0
2018-09-28T00:33:56.934Z,0
2018-09-28T00:35:07.020Z,0
2018-09-28T00:36:17.098Z,0
2018-09-28T00:37:26.911Z,0
2018-09-28T00:38:36.251Z,0
2018-09-28T00:39:46.317Z,0
2018-09-28T00:40:56.386Z,0
2018-09-28T00:42:07.069Z,0
2018-09-28T00:43:17.144Z,0
2018-09-28T00:44:27.260Z,0
2018-09-28T00:45:37.330Z,0
2018-09-28T00:46:47.391Z,0
2018-09-28T00:47:57.491Z,0
2018-09-28T00:49:09.373Z,0
2018-09-28T00:50:19.309Z,0
2018-09-28T00:51:29.393Z,0
2018-09-28T00:52:39.461Z,0
2018-09-28T00:53:49.529Z,0
2018-09-28T00:54:59.611Z,0
2018-09-28T00:56:09.744Z,0
2018-09-28T00:57:19.557Z,0
2018-09-28T00:58:29.621Z,0
2018-09-28T00:59:39.692Z,0
2018-09-28T01:00:49.786Z,0
2018-09-28T01:01:59.877Z,0
2018-09-28T01:03:09.689Z,0
2018-09-28T01:04:19.771Z,0
2018-09-28T01:05:29.867Z,0
2018-09-28T01:06:39.949Z,0
2018-09-28T01:07:49.805Z,0
2018-09-28T01:08:59.884Z,0
2018-09-28T01:10:09.947Z,0
2018-09-28T01:11:19.765Z,0
2018-09-28T01:12:29.584Z,0
2018-09-28T01:13:39.716Z,0
2018-09-28T01:14:49.530Z,0
2018-09-28T01:15:59.332Z,0
2018-09-28T01:17:08.886Z,0
2018-09-28T01:18:18.982Z,0
2018-09-28T01:19:29.111Z,0
2018-09-28T01:20:38.932Z,0
2018-09-28T01:21:48.990Z,0
2018-09-28T01:22:58.798Z,0
2018-09-28T01:24:08.902Z,0
2018-09-28T01:25:18.969Z,0
2018-09-28T01:26:28.781Z,0
2018-09-28T01:27:38.870Z,0
2018-09-28T01:28:48.933Z,0
2018-09-28T01:29:59.006Z,0
2018-09-28T01:31:09.073Z,0
2018-09-28T01:32:19.154Z,0
2018-09-28T01:33:29.215Z,0
2018-09-28T01:34:39.109Z,0
2018-09-28T01:35:49.174Z,0
2018-09-28T01:36:59.093Z,0
2018-09-28T01:38:09.175Z,0
2018-09-28T01:39:18.986Z,0
2018-09-28T01:40:28.815Z,0
2018-09-28T01:41:38.891Z,0
2018-09-28T01:42:49.004Z,0
2018-09-28T01:43:58.875Z,0
2018-09-28T01:45:08.967Z,0
2018-09-28T01:46:18.791Z,0
2018-09-28T01:47:28.874Z,0
2018-09-28T01:48:39.111Z,0
2018-09-28T01:49:49.178Z,0
2018-09-28T01:50:59.250Z,0
2018-09-28T01:52:09.430Z,0
2018-09-28T01:53:19.504Z,0
2018-09-28T01:54:29.629Z,0
2018-09-28T01:55:39.708Z,0
2018-09-28T01:56:49.789Z,0
2018-09-28T01:57:59.865Z,0
2018-09-28T01:59:09.411Z,0
2018-09-28T02:00:19.265Z,0
2018-09-28T02:01:28.868Z,0
2018-09-28T02:02:38.961Z,0
2018-09-28T02:03:49.039Z,0
2018-09-28T02:04:59.122Z,0
2018-09-28T02:06:09.252Z,0
2018-09-28T02:07:19.339Z,0
2018-09-28T02:08:29.410Z,0
2018-09-28T02:09:39.482Z,0
2018-09-28T02:10:49.545Z,0
2018-09-28T02:11:59.134Z,0
2018-09-28T02:13:08.946Z,0
2018-09-28T02:14:18.760Z,0
2018-09-28T02:15:28.835Z,0
2018-09-28T02:16:38.645Z,0
2018-09-28T02:17:48.783Z,0
2018-09-28T02:18:58.845Z,0
2018-09-28T02:20:08.648Z,0
2018-09-28T02:21:18.733Z,0
2018-09-28T02:22:28.547Z,0
2018-09-28T02:23:38.623Z,0
2018-09-28T02:24:48.426Z,0
2018-09-28T02:25:58.509Z,0
2018-09-28T02:27:09.057Z,0
2018-09-28T02:28:19.140Z,0
2018-09-28T02:29:28.956Z,0
2018-09-28T02:30:38.749Z,0
2018-09-28T02:31:48.817Z,0
2018-09-28T02:32:58.894Z,0
2018-09-28T02:34:08.966Z,0
2018-09-28T02:35:19.048Z,0
2018-09-28T02:36:29.131Z,0
2018-09-28T02:37:39.195Z,0
2018-09-28T02:38:49.277Z,0
2018-09-28T02:39:59.351Z,0
2018-09-28T02:41:11.037Z,0
2018-09-28T02:42:21.122Z,0
2018-09-28T02:43:30.945Z,0
2018-09-28T02:44:40.750Z,0
2018-09-28T02:45:50.569Z,0
2018-09-28T02:47:02.247Z,0
2018-09-28T02:48:12.324Z,0
2018-09-28T02:49:21.862Z,0
2018-09-28T02:50:31.938Z,0
2018-09-28T02:51:41.995Z,0
2018-09-28T02:52:52.060Z,0
2018-09-28T02:54:02.124Z,0
2018-09-28T02:55:12.213Z,0
2018-09-28T02:56:22.027Z,0
2018-09-28T02:57:32.093Z,0
2018-09-28T02:58:41.905Z,0
2018-09-28T02:59:51.718Z,0
2018-09-28T03:01:01.772Z,0
2018-09-28T03:02:11.846Z,0
2018-09-28T03:34:10.596Z,0
2018-09-28T03:35:20.703Z,0
2018-09-28T03:36:30.817Z,0
2018-09-28T03:37:40.628Z,0
2018-09-28T03:38:50.688Z,0
2018-09-28T03:40:00.765Z,0
2018-09-28T03:41:10.838Z,0
2018-09-28T03:42:20.901Z,0
2018-09-28T03:43:30.965Z,0
2018-09-28T03:44:41.071Z,0
2018-09-28T03:45:51.203Z,0
2018-09-28T03:47:01.290Z,0
2018-09-28T03:48:11.383Z,0
2018-09-28T03:49:21.465Z,0
2018-09-28T03:50:31.596Z,0
2018-09-28T03:51:41.738Z,0
2018-09-28T03:52:51.556Z,0
2018-09-28T03:54:01.652Z,0
2018-09-28T03:55:11.495Z,0
2018-09-28T03:56:21.304Z,0
2018-09-28T03:57:31.115Z,0
2018-09-28T03:58:40.927Z,0
2018-09-28T03:59:51.000Z,0
2018-09-28T04:01:01.569Z,0
2018-09-28T04:02:11.374Z,0
2018-09-28T04:03:21.498Z,0
2018-09-28T04:04:31.582Z,0
2018-09-28T04:05:41.676Z,0
2018-09-28T04:06:51.757Z,0
2018-09-28T04:08:01.833Z,0
2018-09-28T04:09:12.034Z,0
2018-09-28T04:10:22.100Z,0
2018-09-28T04:11:32.179Z,0
2018-09-28T04:12:41.991Z,0
2018-09-28T04:13:51.809Z,0
2018-09-28T04:15:02.132Z,0
2018-09-28T04:16:12.291Z,0
2018-09-28T04:17:22.359Z,4
2018-09-28T04:18:32.436Z,4
2018-09-28T04:19:42.511Z,0
2018-09-28T04:20:52.620Z,4
2018-09-28T04:22:03.764Z,0
2018-09-28T04:23:14.071Z,4
2018-09-28T04:24:23.378Z,4
2018-09-28T04:25:33.184Z,4
2018-09-28T04:26:43.265Z,4
2018-09-28T04:27:53.380Z,8
2018-09-28T04:29:03.723Z,8
2018-09-28T04:30:13.797Z,12
2018-09-28T04:31:23.881Z,12
2018-09-28T04:32:33.699Z,16
2018-09-28T04:33:43.775Z,20
2018-09-28T04:34:53.845Z,24
2018-09-28T04:36:05.282Z,28
2018-09-28T04:37:14.824Z,32
2018-09-28T04:38:24.896Z,40
2018-09-28T04:39:34.981Z,48
2018-09-28T04:40:45.039Z,56
2018-09-28T04:41:55.116Z,64
2018-09-28T04:43:05.183Z,76
2018-09-28T04:44:15.290Z,88
2018-09-28T04:45:25.839Z,100
2018-09-28T04:46:35.958Z,116
2018-09-28T04:47:46.036Z,128
2018-09-28T04:48:56.115Z,144
2018-09-28T04:50:06.233Z,160
2018-09-28T04:51:16.314Z,180
2018-09-28T04:52:26.127Z,196
2018-09-28T04:53:36.199Z,216
2018-09-28T04:54:46.280Z,240
2018-09-28T04:55:56.077Z,260
2018-09-28T04:57:06.164Z,284
2018-09-28T04:58:16.236Z,304
2018-09-28T04:59:26.331Z,328
2018-09-28T05:00:36.400Z,352
2018-09-28T05:01:46.212Z,376
2018-09-28T05:02:55.775Z,400
2018-09-28T05:04:05.852Z,424
2018-09-28T05:05:15.919Z,448
2018-09-28T05:06:25.737Z,476
2018-09-28T05:07:35.541Z,500
2018-09-28T05:08:45.345Z,524
2018-09-28T05:09:55.180Z,548
2018-09-28T05:11:05.260Z,576
2018-09-28T05:12:15.066Z,600
2018-09-28T05:13:24.880Z,624
2018-09-28T05:14:34.940Z,648
2018-09-28T05:15:44.756Z,676
2018-09-28T05:16:54.578Z,700
2018-09-28T05:18:04.845Z,720
2018-09-28T05:19:14.919Z,744
2018-09-28T05:20:24.738Z,768
2018-09-28T05:21:34.795Z,792
2018-09-28T05:22:44.348Z,816
2018-09-28T05:23:54.141Z,840
2018-09-28T05:25:03.974Z,868
2018-09-28T05:26:14.047Z,884
2018-09-28T05:27:23.848Z,908
2018-09-28T05:28:33.670Z,928
2018-09-28T05:29:43.734Z,948
2018-09-28T05:31:01.832Z,972
2018-09-28T05:32:12.784Z,992
2018-09-28T05:33:22.934Z,1016
2018-09-28T05:34:33.003Z,1040
2018-09-28T05:35:42.802Z,1068
2018-09-28T05:36:52.933Z,1088
2018-09-28T05:38:05.080Z,1108
2018-09-28T05:39:15.193Z,1132
2018-09-28T05:40:25.315Z,1160
2018-09-28T05:41:34.956Z,1188
2018-09-28T05:42:44.750Z,1216
2018-09-28T05:43:55.250Z,1240
2018-09-28T05:45:05.376Z,1268
2018-09-28T05:46:15.593Z,1296
2018-09-28T05:47:25.468Z,1320
2018-09-28T05:48:35.555Z,1344
2018-09-28T05:49:45.636Z,1372
2018-09-28T05:50:55.478Z,1392
2018-09-28T05:52:05.554Z,1420
2018-09-28T05:53:15.420Z,1448
2018-09-28T05:54:25.236Z,1476
2018-09-28T05:55:35.042Z,1496
2018-09-28T05:56:44.846Z,1516
2018-09-28T05:57:54.915Z,1536
2018-09-28T05:59:05.062Z,1560
2018-09-28T06:00:14.888Z,1580
2018-09-28T06:01:24.694Z,1596
2018-09-28T06:02:34.801Z,1616
2018-09-28T06:03:44.614Z,1632
2018-09-28T06:04:54.438Z,1656
2018-09-28T06:06:04.278Z,1676
2018-09-28T06:07:14.358Z,1700
2018-09-28T06:08:24.443Z,1720
2018-09-28T06:09:34.500Z,1736
2018-09-28T06:10:44.044Z,1764
2018-09-28T06:11:54.129Z,1788
2018-09-28T06:13:04.540Z,1804
2018-09-28T06:14:14.611Z,1816
2018-09-28T06:15:24.418Z,1840
2018-09-28T06:16:33.496Z,1868
2018-09-28T06:17:43.580Z,1888
2018-09-28T06:18:53.967Z,1912
2018-09-28T06:20:04.232Z,1932
2018-09-28T06:21:14.075Z,1956
2018-09-28T06:22:24.200Z,1980
2018-09-28T06:23:34.288Z,2000
2018-09-28T06:24:44.360Z,2020
2018-09-28T06:25:54.649Z,2048
2018-09-28T06:27:04.876Z,2068
2018-09-28T06:28:14.798Z,2088
2018-09-28T06:29:24.905Z,2108
2018-09-28T06:30:34.979Z,2132
2018-09-28T06:31:44.794Z,2156
2018-09-28T06:32:54.853Z,2172
2018-09-28T06:34:04.699Z,2196
2018-09-28T06:35:14.783Z,2208
2018-09-28T06:36:25.030Z,2236
2018-09-28T06:37:34.852Z,2256
2018-09-28T06:38:44.970Z,2276
2018-09-28T06:39:55.113Z,2300
2018-09-28T06:41:04.927Z,2320
2018-09-28T06:42:15.320Z,2348
2018-09-28T06:43:25.462Z,2368
2018-09-28T06:44:35.611Z,2388
2018-09-28T06:45:45.823Z,2408
2018-09-28T06:46:55.621Z,2428
2018-09-28T06:48:05.963Z,2448
2018-09-28T06:49:16.150Z,2464
2018-09-28T06:50:26.226Z,2488
2018-09-28T06:51:36.500Z,2512
2018-09-28T06:52:46.567Z,2536
2018-09-28T06:53:57.064Z,2552
2018-09-28T06:55:06.688Z,2568
2018-09-28T06:56:16.257Z,2596
2018-09-28T06:57:26.335Z,2616
2018-09-28T06:58:36.410Z,2640
2018-09-28T06:59:46.635Z,2656
2018-09-28T07:00:56.854Z,2680
2018-09-28T07:02:06.940Z,2700
2018-09-28T07:03:17.005Z,2720
2018-09-28T07:04:26.832Z,2744
2018-09-28T07:05:36.914Z,2764
2018-09-28T07:06:47.037Z,2772
2018-09-28T07:07:57.126Z,2816
2018-09-28T07:09:08.082Z,2836
2018-09-28T07:10:18.170Z,2864
2018-09-28T07:11:28.247Z,2892
2018-09-28T07:12:38.054Z,2908
2018-09-28T07:13:48.124Z,2928
2018-09-28T07:14:58.247Z,2932
2018-09-28T07:16:08.650Z,2956
2018-09-28T07:17:18.822Z,2976
2018-09-28T07:18:29.369Z,3000
2018-09-28T07:19:39.482Z,3020
2018-09-28T07:20:49.678Z,3048
2018-09-28T07:21:59.757Z,3068
2018-09-28T07:23:09.560Z,3088
2018-09-28T07:24:19.570Z,3112
2018-09-28T07:25:29.549Z,3112
2018-09-28T07:26:39.113Z,3156
2018-09-28T07:27:48.652Z,3180
2018-09-28T07:28:58.204Z,3200
2018-09-28T07:30:09.286Z,3224
2018-09-28T07:31:19.097Z,3248
2018-09-28T07:32:28.998Z,3272
2018-09-28T07:33:38.535Z,3292
2018-09-28T07:34:48.085Z,3320
2018-09-28T07:35:57.882Z,3340
2018-09-28T07:37:09.113Z,3368
2018-09-28T07:38:19.816Z,3392
2018-09-28T07:39:29.640Z,3420
2018-09-28T07:40:39.743Z,3440
2018-09-28T07:41:49.780Z,3468
2018-09-28T07:42:59.734Z,3496
2018-09-28T07:44:09.540Z,3516
2018-09-28T07:45:19.648Z,3540
2018-09-28T07:46:29.716Z,3564
2018-09-28T07:47:39.833Z,3588
2018-09-28T07:48:49.951Z,3612
2018-09-28T07:50:00.028Z,3640
2018-09-28T07:51:10.130Z,3660
2018-09-28T07:52:19.945Z,3688
2018-09-28T07:53:30.036Z,3708
2018-09-28T07:54:40.119Z,3732
2018-09-28T07:55:50.449Z,3760
2018-09-28T07:57:00.724Z,3776
2018-09-28T07:58:10.578Z,3800
2018-09-28T07:59:20.672Z,3824
2018-09-28T08:00:30.513Z,3848
2018-09-28T08:01:40.593Z,3868
2018-09-28T08:02:50.675Z,3884
2018-09-28T08:04:01.229Z,3912
2018-09-28T08:05:11.558Z,3932
2018-09-28T08:06:21.652Z,3952
2018-09-28T08:07:31.480Z,3972
2018-09-28T08:08:41.578Z,3988
2018-09-28T08:09:51.668Z,4000
2018-09-28T08:11:01.738Z,4028
2018-09-28T08:12:11.833Z,4048
2018-09-28T08:13:21.899Z,4072
2018-09-28T08:14:31.725Z,4084
2018-09-28T08:15:41.529Z,4112
2018-09-28T08:16:51.608Z,4144
2018-09-28T08:18:01.837Z,4160
2018-09-28T08:19:11.692Z,4164
2018-09-28T08:20:21.788Z,4196
2018-09-28T08:21:31.351Z,4200
2018-09-28T08:22:41.437Z,4220
2018-09-28T08:23:51.510Z,4244
2018-09-28T08:25:01.586Z,4272
2018-09-28T08:26:11.789Z,4296
2018-09-28T08:27:21.858Z,4304
2018-09-28T08:28:31.939Z,4312
2018-09-28T08:29:42.041Z,4312
2018-09-28T08:30:51.872Z,4360
2018-09-28T08:32:01.965Z,4364
2018-09-28T08:33:11.769Z,4392
2018-09-28T08:34:21.584Z,4400
2018-09-28T08:35:31.655Z,4404
2018-09-28T08:36:41.670Z,4420
2018-09-28T08:37:51.731Z,4436
2018-09-28T08:39:01.826Z,4440
2018-09-28T08:40:11.639Z,4484
2018-09-28T08:41:21.781Z,4508
2018-09-28T08:42:31.851Z,4504
2018-09-28T08:43:42.252Z,4532
2018-09-28T08:44:52.534Z,4536
2018-09-28T08:46:02.403Z,4544
2018-09-28T08:47:12.547Z,4584
2018-09-28T08:48:22.649Z,4600
2018-09-28T08:49:32.743Z,4620
2018-09-28T08:50:42.559Z,4632
2018-09-28T08:51:52.381Z,4656
2018-09-28T08:53:02.442Z,4664
2018-09-28T08:54:12.257Z,4688
2018-09-28T08:55:22.391Z,4704
2018-09-28T08:56:32.264Z,4704
2018-09-28T08:57:42.069Z,4728
2018-09-28T08:58:51.987Z,4752
2018-09-28T09:00:02.067Z,4752
2018-09-28T09:01:12.158Z,4760
2018-09-28T09:02:22.482Z,4776
2018-09-28T09:03:32.556Z,4800
2018-09-28T09:04:42.631Z,4820
2018-09-28T09:05:52.746Z,4832
2018-09-28T09:07:02.719Z,4844
2018-09-28T09:08:12.800Z,4856
2018-09-28T09:09:22.885Z,4880
2018-09-28T09:10:32.949Z,4896
2018-09-28T09:11:43.051Z,4904
2018-09-28T09:12:52.893Z,4908
2018-09-28T09:14:02.954Z,4924
2018-09-28T09:15:13.020Z,4944
2018-09-28T09:16:22.572Z,4968
2018-09-28T09:17:32.658Z,4988
2018-09-28T09:18:41.961Z,4984
2018-09-28T09:19:52.031Z,4996
2018-09-28T09:21:02.110Z,5008
2018-09-28T09:22:12.245Z,5016
2018-09-28T09:23:22.061Z,5032
2018-09-28T09:32:39.873Z,5168
2018-09-28T09:33:49.970Z,5196
2018-09-28T09:35:00.123Z,5220
2018-09-28T09:36:10.304Z,5220
2018-09-28T09:37:20.435Z,5224
2018-09-28T09:38:30.579Z,5224
2018-09-28T09:39:40.662Z,5224
2018-09-28T09:40:50.747Z,5244
2018-09-28T09:42:00.825Z,5252
2018-09-28T09:43:10.650Z,5264
2018-09-28T09:44:20.803Z,5252
2018-09-28T09:45:30.888Z,5268
2018-09-28T09:46:40.971Z,5256
2018-09-28T09:47:51.061Z,5260
2018-09-28T09:49:02.960Z,5272
2018-09-28T09:50:13.135Z,5296
2018-09-28T09:51:23.237Z,5280
2018-09-28T09:52:33.053Z,5280
2018-09-28T09:53:42.863Z,5232
2018-09-28T09:54:52.947Z,5240
2018-09-28T09:56:03.025Z,5272
2018-09-28T09:57:12.858Z,5288
2018-09-28T09:58:23.037Z,5280
2018-09-28T09:59:32.848Z,5256
2018-09-28T10:00:42.666Z,5276
2018-09-28T10:01:52.753Z,5292
2018-09-28T10:03:02.834Z,5300
2018-09-28T10:04:12.927Z,5284
2018-09-28T10:05:22.993Z,5292
2018-09-28T10:06:32.564Z,5288
2018-09-28T10:07:42.692Z,5320
2018-09-28T10:08:52.754Z,5332
2018-09-28T10:10:02.846Z,5340
2018-09-28T10:11:12.938Z,5372
2018-09-28T10:12:23.569Z,5372
2018-09-28T10:13:33.971Z,5384
2018-09-28T10:14:43.788Z,5384
2018-09-28T10:15:53.880Z,5388
2018-09-28T10:17:03.956Z,5392
2018-09-28T10:18:14.253Z,5380
2018-09-28T10:19:24.842Z,5392
2018-09-28T10:20:35.031Z,5384
2018-09-28T10:21:44.353Z,5396
2018-09-28T10:22:54.450Z,5396
2018-09-28T10:24:04.260Z,5420
2018-09-28T10:25:14.085Z,5420
2018-09-28T10:26:24.176Z,5404
2018-09-28T10:27:34.852Z,5424
2018-09-28T10:28:45.076Z,5416
2018-09-28T10:29:55.193Z,5408
2018-09-28T10:31:05.332Z,5404
2018-09-28T10:32:15.175Z,5420
2018-09-28T10:33:25.375Z,5392
2018-09-28T10:34:35.674Z,5392
2018-09-28T10:35:45.477Z,5396
2018-09-28T10:36:55.577Z,5396
2018-09-28T10:38:06.282Z,5432
2018-09-28T10:39:16.683Z,5420
2018-09-28T10:40:27.413Z,5408
2018-09-28T10:41:37.448Z,5360
2018-09-28T10:42:47.524Z,5356
2018-09-28T10:43:57.868Z,5344
2018-09-28T10:45:08.094Z,5368
2018-09-28T10:46:17.943Z,5412
2018-09-28T10:47:28.054Z,5432
2018-09-28T10:48:38.176Z,5416
2018-09-28T10:49:48.259Z,5320
2018-09-28T10:50:58.644Z,5344
2018-09-28T10:52:09.677Z,5400
2018-09-28T10:53:20.349Z,5444
2018-09-28T10:54:30.231Z,5428
2018-09-28T10:55:40.320Z,5464
2018-09-28T10:56:50.140Z,5468
2018-09-28T10:58:02.288Z,5480
2018-09-28T10:59:12.406Z,5480
2018-09-28T11:00:22.670Z,5472
2018-09-28T11:01:32.886Z,5480
2018-09-28T11:02:42.454Z,5544
2018-09-28T11:03:52.932Z,5560
2018-09-28T11:05:02.997Z,5528
2018-09-28T11:06:12.870Z,5548
2018-09-28T11:07:22.938Z,5560
2018-09-28T11:08:33.138Z,5552
2018-09-28T11:09:43.343Z,5580
2018-09-28T11:10:54.013Z,5568
2018-09-28T11:12:03.830Z,5600
2018-09-28T11:13:13.644Z,5624
2018-09-28T11:14:23.722Z,5644
2018-09-28T11:15:34.007Z,5648
2018-09-28T11:16:43.923Z,5644
2018-09-28T11:17:54.059Z,5664
2018-09-28T11:19:04.632Z,5688
2018-09-28T11:20:14.808Z,5696
2018-09-28T11:21:25.296Z,5732
2018-09-28T11:22:35.497Z,5744
2018-09-28T11:23:45.061Z,5748
2018-09-28T11:24:55.136Z,5764
2018-09-28T11:26:05.210Z,5772
2018-09-28T11:27:15.187Z,5784
2018-09-28T11:28:25.315Z,5808
2018-09-28T11:29:35.405Z,5784
2018-09-28T11:30:45.494Z,5792
2018-09-28T11:31:55.581Z,5828
2018-09-28T11:33:05.714Z,5844
2018-09-28T11:34:15.850Z,5848
2018-09-28T11:35:25.944Z,5860
2018-09-28T11:36:36.028Z,5904
2018-09-28T11:37:46.476Z,5892
2018-09-28T11:38:56.653Z,5904
2018-09-28T11:40:06.745Z,5932
2018-09-28T11:41:16.840Z,5912
2018-09-28T11:42:26.962Z,5932
2018-09-28T11:43:37.049Z,5968
2018-09-28T11:44:47.148Z,5984
2018-09-28T11:45:57.681Z,5996
2018-09-28T11:47:08.269Z,5988
2018-09-28T11:48:18.361Z,5992
2018-09-28T11:49:28.456Z,5920
2018-09-28T11:50:38.547Z,5936
2018-09-28T11:51:48.756Z,5920
2018-09-28T11:52:59.229Z,5920
2018-09-28T11:54:09.995Z,5992
2018-09-28T11:55:20.098Z,6012
2018-09-28T11:56:29.922Z,6032
2018-09-28T11:57:39.850Z,6052
2018-09-28T11:58:49.779Z,6116
2018-09-28T11:59:59.718Z,6180
2018-09-28T12:01:11.583Z,6240
2018-09-28T12:02:21.716Z,6212
2018-09-28T12:03:32.447Z,6208
2018-09-28T12:04:42.259Z,6216
2018-09-28T12:05:52.370Z,6232
2018-09-28T12:07:03.142Z,6244
2018-09-28T12:08:13.354Z,6256
2018-09-28T12:09:23.870Z,6284
2018-09-28T12:10:34.087Z,6300
2018-09-28T12:11:44.195Z,6296
2018-09-28T12:12:54.563Z,6308
2018-09-28T12:14:04.420Z,6308
2018-09-28T12:15:14.686Z,6304
2018-09-28T12:16:25.015Z,6288
2018-09-28T12:17:35.102Z,6284
2018-09-28T12:18:45.505Z,6268
2018-09-28T12:19:55.798Z,6252
2018-09-28T12:21:05.939Z,6260
2018-09-28T12:22:16.119Z,6256
2018-09-28T12:23:26.236Z,6216
2018-09-28T12:24:36.480Z,6196
2018-09-28T12:25:46.422Z,6176
2018-09-28T12:26:56.522Z,6164
2018-09-28T12:28:06.645Z,6136
2018-09-28T12:29:16.741Z,6108
2018-09-28T12:30:27.353Z,6040
2018-09-28T12:31:37.535Z,6008
2018-09-28T12:32:47.359Z,5936
2018-09-28T12:33:57.516Z,5900
2018-09-28T12:35:08.677Z,5844
2018-09-28T12:36:18.989Z,5808
2018-09-28T12:37:29.179Z,5784
2018-09-28T12:38:39.284Z,5776
2018-09-28T12:39:50.054Z,5768
2018-09-28T12:40:59.886Z,5720
2018-09-28T12:42:10.043Z,5696
2018-09-28T12:43:20.222Z,5668
2018-09-28T12:44:30.386Z,5628
2018-09-28T12:45:40.905Z,5596
2018-09-28T12:46:50.642Z,5588
2018-09-28T12:48:03.424Z,5556
2018-09-28T12:49:13.693Z,5516
2018-09-28T12:50:23.910Z,5500
2018-09-28T12:51:34.151Z,5480
2018-09-28T12:52:44.256Z,5444
2018-09-28T12:53:54.813Z,5432
2018-09-28T12:55:04.903Z,5420
2018-09-28T12:56:14.857Z,5400
2018-09-28T12:57:25.193Z,5376
2018-09-28T12:58:35.045Z,5356
2018-09-28T12:59:44.850Z,5340
2018-09-28T13:00:55.546Z,5312
2018-09-28T13:02:06.129Z,5288
2018-09-28T13:03:16.338Z,5264
2018-09-28T13:04:26.460Z,5268
2018-09-28T13:05:36.548Z,5256
2018-09-28T13:06:46.735Z,5248
2018-09-28T13:07:56.819Z,5232
2018-09-28T13:09:06.759Z,5236
2018-09-28T13:10:16.855Z,5224
2018-09-28T13:11:26.684Z,5200
2018-09-28T13:12:36.971Z,5180
2018-09-28T13:13:47.176Z,5144
2018-09-28T13:14:57.975Z,5128
2018-09-28T13:16:08.313Z,5108
2018-09-28T13:17:18.390Z,5088
2018-09-28T13:18:29.006Z,5072
2018-09-28T13:19:38.975Z,5036
2018-09-28T13:20:49.485Z,5036
2018-09-28T13:21:59.624Z,5000
2018-09-28T13:23:09.718Z,5004
2018-09-28T13:24:19.943Z,4988
2018-09-28T13:25:30.148Z,4976
2018-09-28T13:26:40.365Z,4940
2018-09-28T13:27:50.299Z,4892
2018-09-28T13:29:00.136Z,4900
2018-09-28T13:30:10.603Z,4900
2018-09-28T13:31:20.776Z,4884
2018-09-28T13:32:31.412Z,4864
2018-09-28T13:33:41.579Z,4840
2018-09-28T13:34:50.882Z,4844
2018-09-28T13:36:00.952Z,4812
2018-09-28T13:37:11.060Z,4808
2018-09-28T13:38:21.478Z,4780
2018-09-28T13:39:31.456Z,4772
2018-09-28T13:40:41.550Z,4732
2018-09-28T13:41:51.622Z,4712
2018-09-28T13:43:01.460Z,4668
2018-09-28T13:44:11.138Z,4640
2018-09-28T13:45:20.786Z,4596
2018-09-28T13:46:31.405Z,4572
2018-09-28T13:47:41.446Z,4604
2018-09-28T13:48:52.039Z,4608
2018-09-28T13:50:01.978Z,4600
2018-09-28T13:51:12.136Z,4556
2018-09-28T13:52:22.119Z,4516
2018-09-28T13:53:32.183Z,4472
2018-09-28T13:54:42.505Z,4420
2018-09-28T13:55:52.780Z,4384
2018-09-28T13:57:02.860Z,4376
2018-09-28T13:58:13.079Z,4380
2018-09-28T13:59:23.203Z,4320
2018-09-28T14:00:33.656Z,4304
2018-09-28T14:01:43.777Z,4296
2018-09-28T14:02:53.769Z,4260
2018-09-28T14:04:03.890Z,4264
2018-09-28T14:05:13.982Z,4244
2018-09-28T14:06:24.495Z,4228
2018-09-28T14:07:34.856Z,4172
2018-09-28T14:08:45.312Z,4176
2018-09-28T14:09:55.249Z,4136
2018-09-28T14:11:05.337Z,4108
2018-09-28T14:12:15.627Z,4100
2018-09-28T14:13:25.536Z,4060
2018-09-28T14:14:35.479Z,4048
2018-09-28T14:15:45.365Z,4028
2018-09-28T14:16:55.570Z,3980
2018-09-28T14:18:07.360Z,3952
2018-09-28T14:19:17.638Z,3892
2018-09-28T14:20:28.285Z,3868
2018-09-28T14:21:38.401Z,3824
2018-09-28T14:22:48.593Z,3796
2018-09-28T14:23:58.660Z,3788
2018-09-28T14:25:09.240Z,3772
2018-09-28T14:26:19.534Z,3740
2018-09-28T14:27:29.492Z,3704
2018-09-28T14:28:39.755Z,3668
2018-09-28T14:29:49.640Z,3656
2018-09-28T14:30:59.362Z,3640
2018-09-28T14:32:09.578Z,3596
2018-09-28T14:33:19.732Z,3576
2018-09-28T14:34:30.298Z,3552
2018-09-28T14:35:40.468Z,3516
2018-09-28T14:36:50.659Z,3472
2018-09-28T14:38:00.864Z,3460
2018-09-28T14:39:11.036Z,3444
2018-09-28T14:40:21.361Z,3436
2018-09-28T14:41:31.577Z,3416
2018-09-28T14:42:41.871Z,3388
2018-09-28T14:43:51.762Z,3356
2018-09-28T14:45:01.855Z,3316
2018-09-28T14:46:11.507Z,3284
2018-09-28T14:47:21.621Z,3236
2018-09-28T14:48:33.359Z,3168
2018-09-28T14:49:43.789Z,3144
2018-09-28T14:50:54.402Z,3104
2018-09-28T14:52:04.558Z,3052
2018-09-28T14:53:14.704Z,2996
2018-09-28T14:54:25.073Z,2956
2018-09-28T14:55:35.331Z,2904
2018-09-28T14:56:45.732Z,2868
2018-09-28T14:57:56.224Z,2832
2018-09-28T14:59:06.318Z,2792
2018-09-28T15:00:16.998Z,2780
2018-09-28T15:01:28.239Z,2772
2018-09-28T15:02:38.810Z,2732
2018-09-28T15:03:49.067Z,2680
2018-09-28T15:04:59.157Z,2636
2018-09-28T15:06:09.374Z,2580
2018-09-28T15:07:19.491Z,2548
2018-09-28T15:08:30.137Z,2512
2018-09-28T15:09:40.298Z,2476
2018-09-28T15:10:50.219Z,2440
2018-09-28T15:12:00.356Z,2408
2018-09-28T15:13:10.447Z,2356
2018-09-28T15:14:20.809Z,2308
2018-09-28T15:15:31.368Z,2268
2018-09-28T15:16:41.727Z,2268
2018-09-28T15:17:51.923Z,2248
2018-09-28T15:19:02.037Z,2232
2018-09-28T15:20:12.137Z,2208
2018-09-28T15:21:22.216Z,2192
2018-09-28T15:22:32.316Z,2172
2018-09-28T15:23:42.474Z,2132
2018-09-28T15:24:52.305Z,2112
2018-09-28T15:26:02.401Z,2068
2018-09-28T15:27:12.512Z,2008
2018-09-28T15:28:22.615Z,1972
2018-09-28T15:29:32.848Z,1932
2018-09-28T15:30:43.017Z,1916
2018-09-28T15:31:53.123Z,1884
2018-09-28T15:33:03.218Z,1836
2018-09-28T15:34:13.317Z,1812
2018-09-28T15:35:23.889Z,1780
2018-09-28T15:36:34.058Z,1748
2018-09-28T15:37:43.886Z,1712
2018-09-28T15:38:53.971Z,1668
2018-09-28T15:40:04.265Z,1616
2018-09-28T15:41:14.102Z,1552
2018-09-28T15:42:24.200Z,1484
2018-09-28T15:43:34.085Z,1464
2018-09-28T15:44:44.189Z,1424
2018-09-28T15:45:54.294Z,1376
2018-09-28T15:47:04.392Z,1336
2018-09-28T15:48:14.246Z,1256
2018-09-28T15:49:24.346Z,1208
2018-09-28T15:50:34.433Z,1128
2018-09-28T15:51:44.599Z,1036
2018-09-28T15:52:54.820Z,948
2018-09-28T15:54:04.927Z,944
2018-09-28T15:55:15.014Z,860
2018-09-28T15:56:25.136Z,836
2018-09-28T15:57:35.240Z,812
2018-09-28T15:58:45.354Z,792
2018-09-28T15:59:55.457Z,760
2018-09-28T16:01:06.149Z,724
2018-09-28T16:02:15.979Z,692
2018-09-28T16:03:26.110Z,664
2018-09-28T16:04:36.217Z,652
2018-09-28T16:05:46.336Z,644
2018-09-28T16:06:56.435Z,612
2018-09-28T16:08:06.625Z,568
2018-09-28T16:09:16.463Z,544
2018-09-28T16:10:26.717Z,528
2018-09-28T16:11:36.903Z,504
2018-09-28T16:12:47.010Z,480
2018-09-28T16:13:57.105Z,452
2018-09-28T16:15:06.926Z,428
2018-09-28T16:16:17.062Z,404
2018-09-28T16:17:26.896Z,388
2018-09-28T16:18:36.907Z,364
2018-09-28T16:19:46.845Z,344
2018-09-28T16:20:56.952Z,328
2018-09-28T16:22:07.118Z,312
2018-09-28T16:23:17.210Z,292
2018-09-28T16:24:27.302Z,276
2018-09-28T16:25:37.388Z,264
2018-09-28T16:26:47.223Z,244
2018-09-28T16:27:57.394Z,228
2018-09-28T16:29:07.512Z,212
2018-09-28T16:30:17.609Z,196
2018-09-28T16:31:27.714Z,184
2018-09-28T16:32:37.785Z,172
2018-09-28T16:33:47.608Z,156
2018-09-28T16:34:57.448Z,144
2018-09-28T16:36:07.876Z,128
2018-09-28T16:37:18.167Z,116
2018-09-28T16:38:28.246Z,108
2018-09-28T16:39:38.106Z,92